createdAt,value
2022-08-14T00:00:19.327Z,21.64
2022-08-14T00:02:46.905Z,22.21
2022-08-14T00:05:21.496Z,23.37
2022-08-14T00:07:50.011Z,23.33
2022-08-14T00:10:51.825Z,23.03
2022-08-14T00:13:08.265Z,22.88
2022-08-14T00:15:43.932Z,22.75
2022-08-14T00:18:14.572Z,23.30
2022-08-14T00:20:58.526Z,22.97
2022-08-14T00:23:26.006Z,22.80
2022-08-14T00:26:05.574Z,22.65
2022-08-14T00:28:35.875Z,21.36
2022-08-14T00:31:05.654Z,21.43
2022-08-14T00:33:39.245Z,22.39
2022-08-14T00:36:37.054Z,22.39
2022-08-14T00:39:09.564Z,22.25
2022-08-14T00:41:38.796Z,20.74
2022-08-14T00:44:06.510Z,22.43
2022-08-14T00:46:33.693Z,21.57
2022-08-14T00:49:02.287Z,22.13
2022-08-14T00:51:36.728Z,20.36
2022-08-14T00:54:17.102Z,21.89
2022-08-14T00:56:49.715Z,22.10
2022-08-14T00:59:16.471Z,22.93
2022-08-14T01:01:44.775Z,22.47
2022-08-14T01:04:38.080Z,21.97
2022-08-14T01:07:05.024Z,23.08
2022-08-14T01:09:36.643Z,22.58
2022-08-14T01:12:05.020Z,22.23
2022-08-14T01:14:31.915Z,22.04
2022-08-14T01:16:59.986Z,21.85
2022-08-14T01:19:46.795Z,21.03
2022-08-14T01:22:18.982Z,21.92
2022-08-14T01:24:46.221Z,20.65
2022-08-14T01:27:19.104Z,21.70
2022-08-14T01:30:00.719Z,21.69
2022-08-14T01:32:37.272Z,21.95
2022-08-14T01:35:20.562Z,21.20
2022-08-14T01:37:58.058Z,21.84
2022-08-14T01:40:36.780Z,21.66
2022-08-14T01:43:18.813Z,21.22
2022-08-14T01:45:57.571Z,21.35
2022-08-14T01:48:37.164Z,21.39
2022-08-14T01:51:19.374Z,21.75
2022-08-14T01:53:55.367Z,20.84
2022-08-14T01:56:39.159Z,19.47
2022-08-14T01:59:06.251Z,21.53
2022-08-14T02:01:41.791Z,21.32
2022-08-14T02:04:40.686Z,20.33
2022-08-14T02:06:57.248Z,20.89
2022-08-14T02:09:24.541Z,20.04
2022-08-14T02:11:54.665Z,20.62
2022-08-14T02:14:31.538Z,20.59
2022-08-14T02:17:00.170Z,21.07
2022-08-14T02:19:32.203Z,20.05
2022-08-14T02:22:02.825Z,20.19
2022-08-14T02:24:40.341Z,19.93
2022-08-14T02:28:23.732Z,20.66
2022-08-14T02:30:01.988Z,20.28
2022-08-14T02:32:44.552Z,20.67
2022-08-14T02:35:19.267Z,18.59
2022-08-14T02:37:50.066Z,19.58
2022-08-14T02:40:19.602Z,21.00
2022-08-14T02:42:54.793Z,21.05
2022-08-14T02:45:38.784Z,20.29
2022-08-14T02:49:03.121Z,20.86
2022-08-14T02:51:02.668Z,21.16
2022-08-14T02:53:31.290Z,20.38
2022-08-14T02:56:02.464Z,20.25
2022-08-14T02:58:33.923Z,20.93
2022-08-14T03:01:04.862Z,20.22
2022-08-14T03:03:38.838Z,20.71
2022-08-14T03:06:07.091Z,19.94
2022-08-14T03:08:38.456Z,19.37
2022-08-14T03:11:09.391Z,19.74
2022-08-14T03:13:38.158Z,19.59
2022-08-14T03:16:09.076Z,20.20
2022-08-14T03:18:48.456Z,19.86
2022-08-14T03:21:22.270Z,20.07
2022-08-14T03:23:51.807Z,19.97
2022-08-14T03:26:30.546Z,19.76
2022-08-14T03:29:01.260Z,20.81
2022-08-14T03:31:30.090Z,20.11
2022-08-14T03:34:00.287Z,19.84
2022-08-14T03:37:28.699Z,19.99
2022-08-14T03:39:23.942Z,20.67
2022-08-14T03:41:56.139Z,20.10
2022-08-14T03:45:18.800Z,20.71
2022-08-14T03:47:15.545Z,20.41
2022-08-14T03:49:47.666Z,20.49
2022-08-14T03:52:37.962Z,20.40
2022-08-14T03:55:09.291Z,21.25
2022-08-14T03:57:37.309Z,20.28
2022-08-14T04:00:13.801Z,20.17
2022-08-14T04:02:58.404Z,18.95
2022-08-14T04:05:25.625Z,19.70
2022-08-14T04:08:08.308Z,20.14
2022-08-14T04:10:39.326Z,17.74
2022-08-14T04:13:06.566Z,17.05
2022-08-14T04:15:56.230Z,19.75
2022-08-14T04:18:22.348Z,18.84
2022-08-14T04:20:51.588Z,16.98
2022-08-14T04:23:32.770Z,17.77
2022-08-14T04:26:02.073Z,17.51
2022-08-14T04:29:02.225Z,19.71
2022-08-14T04:32:58.555Z,19.33
2022-08-14T04:34:07.928Z,19.61
2022-08-14T04:36:55.263Z,18.52
2022-08-14T04:39:46.196Z,19.96
2022-08-14T04:42:32.383Z,19.57
2022-08-14T04:45:01.114Z,19.98
2022-08-14T04:47:53.717Z,20.00
2022-08-14T04:50:31.385Z,15.46
2022-08-14T04:53:04.675Z,19.16
2022-08-14T04:55:31.867Z,19.91
2022-08-14T04:57:59.302Z,20.70
2022-08-14T05:00:27.538Z,20.02
2022-08-14T05:02:57.182Z,19.36
2022-08-14T05:05:25.394Z,20.86
2022-08-14T05:08:01.184Z,21.80
2022-08-14T05:10:32.050Z,21.35
2022-08-14T05:13:13.510Z,19.80
2022-08-14T05:15:42.028Z,21.64
2022-08-14T05:18:37.162Z,20.94
2022-08-14T05:21:54.598Z,22.58
2022-08-14T05:23:51.950Z,22.13
2022-08-14T05:26:21.610Z,21.29
2022-08-14T05:28:48.450Z,20.99
2022-08-14T05:31:20.803Z,19.07
2022-08-14T05:33:56.805Z,17.90
2022-08-14T05:36:27.039Z,18.97
2022-08-14T05:38:54.039Z,22.00
2022-08-14T05:41:22.494Z,23.22
2022-08-14T05:43:51.135Z,22.26
2022-08-14T05:46:22.932Z,23.10
2022-08-14T05:48:56.252Z,20.83
2022-08-14T05:51:25.882Z,21.79
2022-08-14T05:54:01.611Z,24.30
2022-08-14T05:56:39.947Z,24.67
2022-08-14T05:59:07.224Z,25.99
2022-08-14T06:01:34.721Z,25.77
2022-08-14T06:04:02.194Z,23.51
2022-08-14T06:06:36.455Z,25.42
2022-08-14T06:09:05.889Z,23.43
2022-08-14T06:11:37.528Z,26.01
2022-08-14T06:14:04.433Z,25.84
2022-08-14T06:16:39.333Z,23.84
2022-08-14T06:19:07.694Z,24.64
2022-08-14T06:21:42.364Z,26.66
2022-08-14T06:24:10.473Z,27.77
2022-08-14T06:26:54.143Z,26.91
2022-08-14T06:29:32.179Z,26.72
2022-08-14T06:32:37.742Z,27.41
2022-08-14T06:35:03.837Z,28.48
2022-08-14T06:37:58.493Z,28.37
2022-08-14T06:40:34.387Z,28.33
2022-08-14T06:43:11.713Z,25.80
2022-08-14T06:45:53.937Z,27.59
2022-08-14T06:48:25.226Z,29.24
2022-08-14T06:50:53.874Z,26.58
2022-08-14T06:53:22.037Z,29.55
2022-08-14T06:56:00.706Z,29.90
2022-08-14T06:58:30.793Z,31.17
2022-08-14T07:01:25.005Z,29.45
2022-08-14T07:04:22.744Z,29.19
2022-08-14T07:06:54.810Z,30.07
2022-08-14T07:09:25.869Z,31.10
2022-08-14T07:11:54.881Z,29.75
2022-08-14T07:14:23.154Z,30.91
2022-08-14T07:16:49.901Z,28.52
2022-08-14T07:19:21.050Z,28.85
2022-08-14T07:21:48.325Z,30.17
2022-08-14T07:24:21.695Z,29.68
2022-08-14T07:26:53.438Z,29.58
2022-08-14T07:29:26.129Z,28.16
2022-08-14T07:31:53.658Z,26.95
2022-08-14T07:34:36.335Z,31.56
2022-08-14T07:37:07.525Z,26.87
2022-08-14T07:39:36.862Z,25.36
2022-08-14T07:42:06.197Z,29.27
2022-08-14T07:44:45.936Z,26.85
2022-08-14T07:47:16.652Z,31.04
2022-08-14T07:49:58.857Z,30.89
2022-08-14T07:52:30.887Z,26.76
2022-08-14T07:55:01.173Z,28.00
2022-08-14T07:57:28.232Z,31.21
2022-08-14T07:59:55.183Z,31.67
2022-08-14T08:02:22.947Z,30.86
2022-08-14T08:04:59.180Z,29.66
2022-08-14T08:07:32.012Z,31.39
2022-08-14T08:10:02.450Z,28.38
2022-08-14T08:12:32.469Z,29.24
2022-08-14T08:15:02.663Z,31.88
2022-08-14T08:17:34.341Z,30.32
2022-08-14T08:20:01.972Z,30.36
2022-08-14T08:22:32.510Z,31.83
2022-08-14T08:25:00.696Z,29.74
2022-08-14T08:27:27.662Z,32.21
2022-08-14T08:30:10.169Z,28.78
2022-08-14T08:32:40.457Z,30.24
2022-08-14T08:35:11.394Z,31.39
2022-08-14T08:37:40.239Z,30.05
2022-08-14T08:40:11.237Z,32.62
2022-08-14T08:42:47.817Z,32.72
2022-08-14T08:45:22.124Z,31.26
2022-08-14T08:47:50.993Z,34.38
2022-08-14T08:53:08.385Z,31.96
2022-08-14T08:55:42.368Z,30.99
2022-08-14T08:58:12.624Z,31.47
2022-08-14T09:00:48.957Z,29.86
2022-08-14T09:03:20.621Z,31.90
2022-08-14T09:06:02.100Z,30.62
2022-08-14T09:08:33.542Z,28.78
2022-08-14T09:11:19.892Z,29.53
2022-08-14T09:13:53.079Z,29.64
2022-08-14T09:16:25.771Z,29.42
2022-08-14T09:18:54.620Z,30.28
2022-08-14T09:21:24.381Z,30.02
2022-08-14T09:24:28.119Z,31.33
2022-08-14T09:26:49.424Z,31.38
2022-08-14T09:29:17.995Z,29.13
2022-08-14T09:31:56.841Z,29.17
2022-08-14T09:35:08.513Z,32.28
2022-08-14T09:37:59.126Z,34.67
2022-08-14T09:40:34.534Z,32.65
2022-08-14T09:43:25.586Z,33.68
2022-08-14T09:45:58.293Z,32.48
2022-08-14T09:48:31.012Z,31.25
2022-08-14T09:54:18.075Z,30.18
2022-08-14T09:56:56.574Z,33.29
2022-08-14T09:59:25.601Z,32.68
2022-08-14T10:01:57.239Z,33.17
2022-08-14T10:04:36.007Z,33.10
2022-08-14T10:07:06.053Z,30.55
2022-08-14T10:09:57.649Z,32.15
2022-08-14T10:12:52.923Z,34.47
2022-08-14T10:15:25.103Z,35.13
2022-08-14T10:18:04.386Z,36.15
2022-08-14T10:20:44.944Z,33.54
2022-08-14T10:23:19.358Z,32.72
2022-08-14T10:25:54.340Z,34.16
2022-08-14T10:28:51.467Z,34.11
2022-08-14T10:31:26.793Z,35.45
2022-08-14T10:34:13.301Z,34.13
2022-08-14T10:36:47.662Z,34.85
2022-08-14T10:39:25.889Z,33.08
2022-08-14T10:42:16.461Z,34.56
2022-08-14T10:44:48.827Z,35.38
2022-08-14T10:47:41.210Z,34.30
2022-08-14T10:50:07.807Z,33.86
2022-08-14T10:52:43.048Z,35.50
2022-08-14T10:55:15.510Z,34.17
2022-08-14T10:57:53.600Z,31.80
2022-08-14T11:00:30.336Z,32.06
2022-08-14T11:03:10.928Z,34.16
2022-08-14T11:05:46.690Z,37.78
2022-08-14T11:08:17.372Z,33.95
2022-08-14T11:10:58.559Z,36.47
2022-08-14T11:13:30.024Z,37.41
2022-08-14T11:16:01.823Z,34.97
2022-08-14T11:18:35.695Z,35.49
2022-08-14T11:21:06.583Z,37.08
2022-08-14T11:23:38.180Z,35.21
2022-08-14T11:26:07.254Z,34.37
2022-08-14T11:28:47.522Z,35.41
2022-08-14T11:31:21.970Z,34.75
2022-08-14T11:33:58.101Z,33.99
2022-08-14T11:36:35.276Z,34.35
2022-08-14T11:39:34.842Z,36.13
2022-08-14T11:42:58.258Z,36.33
2022-08-14T11:45:04.191Z,35.85
2022-08-14T11:47:35.478Z,36.56
2022-08-14T11:50:33.685Z,35.17
2022-08-14T11:53:05.618Z,33.63
2022-08-14T11:55:36.272Z,35.11
2022-08-14T11:58:11.290Z,36.04
2022-08-14T12:00:53.762Z,36.93
2022-08-14T12:03:37.391Z,33.03
2022-08-14T12:06:29.106Z,36.22
2022-08-14T12:09:02.802Z,35.93
2022-08-14T12:11:43.179Z,37.22
2022-08-14T12:14:29.191Z,33.60
2022-08-14T12:17:11.946Z,37.99
2022-08-14T12:19:54.056Z,34.77
2022-08-14T12:22:43.163Z,32.21
2022-08-14T12:25:14.915Z,35.95
2022-08-14T12:27:53.459Z,36.08
2022-08-14T12:30:42.541Z,34.68
2022-08-14T12:33:33.723Z,37.51
2022-08-14T12:36:05.397Z,36.15
2022-08-14T12:38:44.958Z,37.31
2022-08-14T12:41:21.722Z,37.51
2022-08-14T12:44:01.873Z,38.71
2022-08-14T12:46:38.046Z,37.01
2022-08-14T12:49:17.766Z,35.33
2022-08-14T12:51:56.917Z,36.80
2022-08-14T12:54:28.487Z,34.96
2022-08-14T12:57:55.707Z,36.27
2022-08-14T13:00:25.664Z,38.27
2022-08-14T13:02:56.524Z,35.26
2022-08-14T13:05:30.230Z,33.75
2022-08-14T13:07:59.300Z,35.14
2022-08-14T13:10:46.678Z,32.55
2022-08-14T13:13:17.812Z,33.46
2022-08-14T13:15:47.098Z,35.82
2022-08-14T13:18:15.906Z,37.19
2022-08-14T13:20:49.796Z,38.11
2022-08-14T13:23:31.553Z,34.32
2022-08-14T13:25:59.366Z,35.00
2022-08-14T13:28:33.073Z,37.19
2022-08-14T13:31:11.033Z,34.61
2022-08-14T13:33:40.899Z,34.65
2022-08-14T13:36:10.006Z,33.48
2022-08-14T13:38:38.777Z,36.06
2022-08-14T13:41:06.548Z,36.29
2022-08-14T13:43:36.925Z,36.84
2022-08-14T13:46:19.404Z,37.59
2022-08-14T13:48:46.922Z,35.24
2022-08-14T13:51:16.669Z,35.12
2022-08-14T13:54:01.517Z,36.63
2022-08-14T13:56:42.294Z,37.08
2022-08-14T13:59:10.483Z,36.63
2022-08-14T14:01:43.361Z,35.86
2022-08-14T14:04:19.268Z,35.71
2022-08-14T14:06:49.597Z,36.22
2022-08-14T14:09:32.637Z,37.50
2022-08-14T14:12:37.859Z,36.27
2022-08-14T14:15:05.037Z,35.54
2022-08-14T14:17:32.840Z,34.54
2022-08-14T14:20:01.386Z,35.92
2022-08-14T14:22:35.559Z,36.62
2022-08-14T14:25:22.284Z,37.88
2022-08-14T14:27:53.405Z,38.05
2022-08-14T14:30:51.747Z,35.78
2022-08-14T14:33:42.169Z,33.50
2022-08-14T14:36:01.846Z,34.14
2022-08-14T14:38:33.927Z,36.09
2022-08-14T14:41:02.117Z,36.09
2022-08-14T14:43:29.265Z,38.06
2022-08-14T14:45:56.678Z,35.64
2022-08-14T14:48:28.306Z,36.92
2022-08-14T14:50:59.419Z,34.11
2022-08-14T14:53:28.510Z,34.84
2022-08-14T14:56:49.591Z,34.38
2022-08-14T14:58:46.505Z,33.44
2022-08-14T15:01:17.453Z,35.53
2022-08-14T15:03:46.162Z,34.13
2022-08-14T15:06:13.150Z,37.55
2022-08-14T15:08:58.365Z,36.22
2022-08-14T15:11:30.290Z,36.51
2022-08-14T15:14:00.283Z,33.75
2022-08-14T15:16:28.520Z,36.45
2022-08-14T15:18:55.346Z,35.69
2022-08-14T15:21:22.811Z,35.02
2022-08-14T15:23:50.665Z,35.76
2022-08-14T15:26:23.814Z,35.92
2022-08-14T15:29:05.162Z,35.30
2022-08-14T15:31:36.626Z,33.66
2022-08-14T15:34:45.553Z,31.56
2022-08-14T15:37:06.524Z,35.69
2022-08-14T15:39:38.701Z,35.77
2022-08-14T15:42:16.220Z,33.05
2022-08-14T15:44:57.492Z,35.32
2022-08-14T15:47:29.372Z,31.94
2022-08-14T15:50:01.415Z,31.17
2022-08-14T15:52:32.974Z,33.90
2022-08-14T15:55:14.521Z,34.15
2022-08-14T15:58:02.025Z,33.79
2022-08-14T16:00:51.815Z,33.98
2022-08-14T16:03:27.581Z,35.96
2022-08-14T16:06:15.553Z,35.87
2022-08-14T16:08:46.913Z,34.80
2022-08-14T16:11:17.933Z,35.79
2022-08-14T16:13:47.562Z,33.57
2022-08-14T16:16:50.903Z,33.51
2022-08-14T16:19:23.619Z,34.95
2022-08-14T16:22:02.126Z,35.22
2022-08-14T16:24:59.790Z,33.42
2022-08-14T16:27:39.678Z,32.95
2022-08-14T16:30:25.277Z,33.27
2022-08-14T16:32:57.019Z,34.20
2022-08-14T16:35:43.500Z,34.53
2022-08-14T16:38:19.553Z,34.12
2022-08-14T16:41:27.112Z,33.67
2022-08-14T16:44:01.332Z,34.36
2022-08-14T16:46:32.525Z,34.43
2022-08-14T16:49:00.669Z,32.15
2022-08-14T16:51:31.177Z,33.28
2022-08-14T16:54:05.389Z,31.63
2022-08-14T16:56:52.519Z,31.10
2022-08-14T16:59:30.717Z,32.43
2022-08-14T17:02:11.733Z,33.25
2022-08-14T17:04:41.063Z,33.31
2022-08-14T17:07:14.119Z,33.69
2022-08-14T17:09:47.352Z,32.89
2022-08-14T17:12:35.196Z,33.34
2022-08-14T17:15:09.766Z,33.34
2022-08-14T17:17:39.878Z,33.67
2022-08-14T17:20:39.467Z,32.62
2022-08-14T17:23:11.365Z,32.83
2022-08-14T17:25:39.075Z,32.42
2022-08-14T17:28:50.008Z,31.26
2022-08-14T17:31:07.892Z,32.35
2022-08-14T17:33:40.992Z,31.46
2022-08-14T17:36:20.205Z,31.14
2022-08-14T17:39:17.833Z,31.13
2022-08-14T17:42:03.261Z,32.19
2022-08-14T17:44:44.835Z,29.22
2022-08-14T17:47:17.882Z,30.64
2022-08-14T17:49:52.146Z,31.41
2022-08-14T17:52:35.871Z,31.47
2022-08-14T17:56:00.839Z,31.88
2022-08-14T17:57:58.656Z,30.97
2022-08-14T18:00:26.319Z,31.75
2022-08-14T18:02:55.313Z,31.17
2022-08-14T18:06:06.584Z,30.39
2022-08-14T18:08:32.019Z,30.56
2022-08-14T18:11:00.043Z,30.85
2022-08-14T18:13:51.572Z,29.62
2022-08-14T18:16:20.574Z,29.75
2022-08-14T18:18:51.139Z,30.16
2022-08-14T18:21:25.494Z,29.47
2022-08-14T18:24:28.274Z,30.95
2022-08-14T18:27:23.426Z,30.25
2022-08-14T18:30:32.377Z,30.96
2022-08-14T18:32:55.106Z,30.15
2022-08-14T18:35:46.022Z,31.19
2022-08-14T18:38:25.963Z,30.47
2022-08-14T18:41:25.457Z,29.81
2022-08-14T18:44:04.506Z,29.16
2022-08-14T18:47:14.756Z,30.02
2022-08-14T18:49:57.876Z,28.67
2022-08-14T18:52:39.925Z,29.77
2022-08-14T18:55:18.516Z,29.61
2022-08-14T18:58:27.429Z,29.02
2022-08-14T19:00:56.058Z,28.24
2022-08-14T19:03:36.740Z,27.49
2022-08-14T19:06:05.720Z,28.33
2022-08-14T19:08:45.510Z,28.44
2022-08-14T19:11:39.724Z,28.37
2022-08-14T19:14:08.007Z,27.87
2022-08-14T19:16:43.017Z,28.20
2022-08-14T19:19:15.396Z,28.25
2022-08-14T19:21:56.001Z,27.80
2022-08-14T19:24:44.304Z,28.15
2022-08-14T19:27:23.046Z,28.88
2022-08-14T19:29:51.793Z,28.06
2022-08-14T19:32:39.636Z,28.79
2022-08-14T19:35:49.606Z,28.35
2022-08-14T19:38:44.493Z,27.86
2022-08-14T19:41:17.748Z,26.88
2022-08-14T19:43:55.642Z,27.91
2022-08-14T19:46:38.085Z,27.93
2022-08-14T19:49:23.010Z,28.88
2022-08-14T19:52:04.703Z,27.97
2022-08-14T19:54:45.009Z,27.84
2022-08-14T19:57:29.632Z,28.08
2022-08-14T20:00:04.560Z,27.26
2022-08-14T20:02:39.058Z,26.80
2022-08-14T20:05:08.117Z,27.78
2022-08-14T20:07:59.871Z,26.85
2022-08-14T20:11:04.939Z,28.30
2022-08-14T20:13:29.371Z,27.73
2022-08-14T20:16:12.112Z,28.60
2022-08-14T20:18:49.526Z,28.47
2022-08-14T20:21:18.608Z,28.00
2022-08-14T20:23:48.251Z,27.41
2022-08-14T20:26:30.840Z,27.38
2022-08-14T20:29:04.844Z,27.40
2022-08-14T20:31:37.086Z,27.18
2022-08-14T20:34:06.417Z,25.86
2022-08-14T20:36:40.499Z,24.19
2022-08-14T20:39:15.275Z,27.26
2022-08-14T20:41:51.291Z,25.58
2022-08-14T20:44:40.777Z,27.88
2022-08-14T20:47:15.105Z,27.80
2022-08-14T20:49:41.898Z,25.98
2022-08-14T20:52:19.077Z,27.48
2022-08-14T20:54:51.438Z,27.67
2022-08-14T20:57:19.863Z,27.79
2022-08-14T20:59:52.986Z,26.42
2022-08-14T21:02:34.390Z,28.11
2022-08-14T21:05:16.728Z,25.94
2022-08-14T21:07:51.155Z,27.26
2022-08-14T21:10:33.207Z,24.72
2022-08-14T21:14:09.307Z,26.65
2022-08-14T21:15:57.621Z,25.52
2022-08-14T21:18:35.231Z,25.84
2022-08-14T21:21:18.512Z,26.08
2022-08-14T21:23:54.985Z,26.97
2022-08-14T21:26:51.420Z,26.45
2022-08-14T21:29:21.026Z,25.77
2022-08-14T21:31:56.147Z,25.27
2022-08-14T21:34:30.960Z,25.67
2022-08-14T21:37:08.862Z,27.47
2022-08-14T21:39:37.151Z,26.92
2022-08-14T21:42:06.303Z,26.41
2022-08-14T21:44:42.534Z,25.78
2022-08-14T21:47:13.062Z,25.22
2022-08-14T21:49:43.033Z,26.43
2022-08-14T21:52:51.556Z,27.63
2022-08-14T21:55:09.808Z,26.59
2022-08-14T21:58:38.394Z,26.94
2022-08-14T22:00:39.406Z,26.41
2022-08-14T22:03:17.239Z,25.48
2022-08-14T22:05:48.023Z,25.79
2022-08-14T22:08:16.754Z,25.60
2022-08-14T22:10:47.413Z,25.83
2022-08-14T22:13:22.588Z,24.70
2022-08-14T22:15:54.312Z,27.40
2022-08-14T22:18:25.539Z,26.05
2022-08-14T22:20:56.670Z,27.17
2022-08-14T22:23:25.784Z,26.24
2022-08-14T22:25:55.243Z,26.25
2022-08-14T22:28:32.967Z,26.95
2022-08-14T22:31:03.319Z,27.81
2022-08-14T22:33:30.927Z,26.89
2022-08-14T22:36:00.412Z,26.78
2022-08-14T22:38:37.327Z,25.80
2022-08-14T22:41:26.910Z,25.17
2022-08-14T22:43:57.333Z,26.88
2022-08-14T22:46:27.129Z,24.73
2022-08-14T22:48:54.728Z,24.26
2022-08-14T22:51:27.673Z,24.46
2022-08-14T22:53:56.863Z,26.50
2022-08-14T22:56:30.106Z,26.77
2022-08-14T22:59:03.480Z,26.16
2022-08-14T23:01:56.107Z,27.09
2022-08-14T23:04:35.290Z,26.65
2022-08-14T23:07:21.893Z,23.73
2022-08-14T23:10:32.878Z,24.70
2022-08-14T23:12:54.817Z,24.05
2022-08-14T23:15:23.418Z,24.30
2022-08-14T23:17:50.300Z,24.30
2022-08-14T23:20:21.183Z,25.99
2022-08-14T23:22:51.839Z,25.96
2022-08-14T23:25:57.838Z,27.27
2022-08-14T23:28:33.634Z,26.60
2022-08-14T23:31:01.299Z,27.01
2022-08-14T23:33:28.712Z,27.78
2022-08-14T23:35:58.625Z,27.82
2022-08-14T23:38:30.519Z,23.96
2022-08-14T23:41:00.862Z,25.45
2022-08-14T23:43:31.127Z,27.09
2022-08-14T23:45:58.937Z,27.91
2022-08-14T23:48:28.560Z,27.44
2022-08-14T23:50:56.458Z,27.74
2022-08-14T23:53:28.217Z,26.77
2022-08-14T23:55:57.394Z,26.96
2022-08-14T23:58:29.715Z,27.17
